Time;durP1;ratioP1;P1;durP2;ratioP2;P2;SDS_P1;SDS_P2;PMS_P1;PMS_P2;Temp;Humidity;BMP_temperature;BMP_pressure;BME280_temperature;BME280_humidity;BME280_pressure;Samples;Min_cycle;Max_cycle;Signal;HPM_P1;HPM_P2
2023/10/20 00:01:52;;;;;;;10.70;6.55;;;;;;;;;;5052099;28;20032;-64
2023/10/20 00:04:18;;;;;;;8.60;5.63;;;;;;;;;;5047593;28;20130;-65
2023/10/20 00:06:44;;;;;;;9.00;6.10;;;;;;;;;;5047022;28;20067;-65
2023/10/20 00:09:18;;;;;;;7.07;5.30;;;;;;;;;;5071312;28;20049;-64
2023/10/20 00:11:45;;;;;;;7.90;5.18;;;;;;;;;;5076602;28;20056;-64
2023/10/20 00:14:11;;;;;;;7.97;5.43;;;;;;;;;;5067303;28;20063;-65
2023/10/20 00:16:37;;;;;;;10.35;6.65;;;;;;;;;;5040700;28;20040;-64
2023/10/20 00:19:04;;;;;;;9.93;5.53;;;;;;;;;;5072194;28;20087;-65
2023/10/20 00:21:30;;;;;;;10.20;5.90;;;;;;;;;;5072833;28;20044;-65
2023/10/20 00:23:56;;;;;;;8.60;5.85;;;;;;;;;;5077777;28;20040;-65
2023/10/20 00:26:22;;;;;;;8.75;5.55;;;;;;;;;;5070322;28;20118;-64
2023/10/20 00:28:49;;;;;;;8.15;5.43;;;;;;;;;;5072064;28;20043;-63
2023/10/20 00:31:16;;;;;;;7.60;5.22;;;;;;;;;;5065048;28;20044;-64
2023/10/20 00:33:45;;;;;;;6.95;4.57;;;;;;;;;;5069624;28;20506;-64
2023/10/20 00:36:11;;;;;;;7.22;5.20;;;;;;;;;;5065794;28;20043;-65
2023/10/20 00:38:38;;;;;;;5.82;5.03;;;;;;;;;;5070098;28;20033;-65
2023/10/20 00:41:04;;;;;;;12.93;6.22;;;;;;;;;;5064586;28;20396;-65
2023/10/20 00:43:34;;;;;;;8.57;5.72;;;;;;;;;;5068224;28;20029;-65
2023/10/20 00:46:01;;;;;;;8.05;5.15;;;;;;;;;;5067822;28;20048;-64
2023/10/20 00:48:27;;;;;;;8.18;5.43;;;;;;;;;;5069700;28;20127;-64
2023/10/20 00:50:53;;;;;;;6.30;4.85;;;;;;;;;;5079476;28;20483;-65
2023/10/20 00:53:19;;;;;;;7.25;5.35;;;;;;;;;;5069933;28;20039;-65
2023/10/20 00:55:45;;;;;;;11.82;6.05;;;;;;;;;;5087720;28;20032;-65
2023/10/20 00:58:12;;;;;;;8.65;4.95;;;;;;;;;;5071396;28;20124;-65
2023/10/20 01:00:38;;;;;;;7.40;4.53;;;;;;;;;;5062206;28;20470;-64
2023/10/20 01:03:04;;;;;;;7.78;5.32;;;;;;;;;;5064516;28;20500;-65
2023/10/20 01:05:31;;;;;;;8.63;6.03;;;;;;;;;;5076378;28;20080;-64
2023/10/20 01:07:58;;;;;;;8.13;5.88;;;;;;;;;;5053800;28;20045;-65
2023/10/20 01:10:24;;;;;;;7.50;5.28;;;;;;;;;;5072757;28;20121;-68
2023/10/20 01:12:50;;;;;;;12.88;5.85;;;;;;;;;;5072539;28;20115;-62
2023/10/20 01:15:16;;;;;;;9.65;5.60;;;;;;;;;;5061859;28;20051;-65
2023/10/20 01:17:42;;;;;;;8.20;5.68;;;;;;;;;;5065050;28;20057;-65
2023/10/20 01:20:09;;;;;;;8.10;4.85;;;;;;;;;;5062111;28;20044;-63
2023/10/20 01:22:35;;;;;;;6.70;5.20;;;;;;;;;;5069952;28;20110;-65
2023/10/20 01:25:01;;;;;;;7.93;5.00;;;;;;;;;;5073478;28;20036;-66
2023/10/20 01:27:28;;;;;;;7.53;5.13;;;;;;;;;;5081916;28;20045;-65
2023/10/20 01:29:54;;;;;;;7.22;4.72;;;;;;;;;;5087368;28;20040;-64
2023/10/20 01:32:21;;;;;;;7.43;5.45;;;;;;;;;;5077125;28;20048;-65
2023/10/20 01:34:47;;;;;;;7.10;5.18;;;;;;;;;;5083405;28;20164;-65
2023/10/20 01:37:13;;;;;;;7.93;5.65;;;;;;;;;;5072676;28;20059;-64
2023/10/20 01:39:39;;;;;;;8.35;6.20;;;;;;;;;;5055185;28;20127;-65
2023/10/20 01:42:05;;;;;;;8.60;5.28;;;;;;;;;;5066639;28;20680;-65
2023/10/20 01:44:31;;;;;;;12.43;5.90;;;;;;;;;;5056740;28;20368;-65
2023/10/20 01:46:58;;;;;;;9.80;6.20;;;;;;;;;;5063313;28;20036;-65
2023/10/20 01:49:25;;;;;;;8.13;5.43;;;;;;;;;;5069864;28;20040;-65
2023/10/20 01:51:51;;;;;;;8.32;5.30;;;;;;;;;;5074017;28;20047;-66
2023/10/20 01:54:17;;;;;;;6.72;4.75;;;;;;;;;;5076135;28;20045;-65
2023/10/20 01:56:43;;;;;;;8.95;5.55;;;;;;;;;;5081800;28;20038;-65
2023/10/20 01:59:10;;;;;;;7.68;5.13;;;;;;;;;;5083093;28;20035;-65
2023/10/20 02:01:36;;;;;;;9.20;6.07;;;;;;;;;;5059758;28;20063;-65
2023/10/20 02:04:02;;;;;;;10.13;6.32;;;;;;;;;;5069613;28;20056;-64
2023/10/20 02:06:28;;;;;;;8.75;5.32;;;;;;;;;;5077406;28;20146;-64
2023/10/20 02:08:54;;;;;;;9.43;5.65;;;;;;;;;;5074820;28;20052;-64
2023/10/20 02:11:21;;;;;;;11.18;6.57;;;;;;;;;;5071489;28;20071;-64
2023/10/20 02:13:47;;;;;;;9.25;6.07;;;;;;;;;;5072929;28;20067;-64
2023/10/20 02:16:13;;;;;;;10.32;6.07;;;;;;;;;;5060926;28;20492;-64
2023/10/20 02:18:39;;;;;;;11.50;6.78;;;;;;;;;;5070967;28;20040;-65
2023/10/20 02:21:07;;;;;;;10.15;5.88;;;;;;;;;;5051847;28;20207;-66
2023/10/20 02:23:40;;;;;;;12.32;5.90;;;;;;;;;;5058589;28;20111;-64
2023/10/20 02:26:07;;;;;;;11.20;6.28;;;;;;;;;;5062224;28;20037;-65
2023/10/20 02:28:34;;;;;;;9.50;5.75;;;;;;;;;;5062031;28;20055;-65
2023/10/20 02:31:00;;;;;;;9.23;6.53;;;;;;;;;;5075740;28;20658;-64
2023/10/20 02:33:26;;;;;;;10.10;6.80;;;;;;;;;;5074176;28;20044;-63
2023/10/20 02:35:54;;;;;;;9.68;6.43;;;;;;;;;;5073316;28;20051;-64
2023/10/20 02:38:20;;;;;;;9.48;6.10;;;;;;;;;;5066805;28;20083;-63
2023/10/20 02:40:50;;;;;;;11.25;6.68;;;;;;;;;;5074260;28;20041;-65
2023/10/20 02:43:16;;;;;;;10.70;7.10;;;;;;;;;;5076169;28;20044;-63
2023/10/20 02:45:52;;;;;;;9.07;6.22;;;;;;;;;;5071377;28;20348;-63
2023/10/20 02:48:18;;;;;;;9.52;5.65;;;;;;;;;;5068216;28;20432;-64
2023/10/20 02:50:45;;;;;;;10.80;7.15;;;;;;;;;;5069936;28;20044;-65
2023/10/20 02:53:13;;;;;;;11.13;7.50;;;;;;;;;;5069706;28;20514;-65
2023/10/20 02:55:40;;;;;;;11.88;7.63;;;;;;;;;;5068953;28;20055;-65
2023/10/20 02:58:07;;;;;;;10.75;7.07;;;;;;;;;;5068161;28;20075;-64
2023/10/20 03:00:33;;;;;;;11.70;6.65;;;;;;;;;;5069108;28;20134;-64
2023/10/20 03:03:00;;;;;;;11.50;7.72;;;;;;;;;;5069241;28;20523;-64
2023/10/20 03:05:32;;;;;;;11.52;6.72;;;;;;;;;;5069420;28;20040;-65
2023/10/20 03:07:58;;;;;;;11.23;6.78;;;;;;;;;;5069452;28;20037;-65
2023/10/20 03:10:26;;;;;;;10.32;7.63;;;;;;;;;;5060741;28;20033;-64
2023/10/20 03:12:52;;;;;;;12.98;7.45;;;;;;;;;;5048384;28;20500;-64
2023/10/20 03:15:18;;;;;;;12.48;7.72;;;;;;;;;;5065789;28;20598;-64
2023/10/20 03:17:44;;;;;;;11.00;6.75;;;;;;;;;;5054208;28;20036;-64
2023/10/20 03:20:14;;;;;;;10.13;7.53;;;;;;;;;;5069675;28;20449;-65
2023/10/20 03:22:41;;;;;;;10.93;6.63;;;;;;;;;;5073763;28;20037;-64
2023/10/20 03:25:10;;;;;;;12.80;7.75;;;;;;;;;;5045211;28;20404;-65
2023/10/20 03:27:38;;;;;;;13.63;7.18;;;;;;;;;;5066488;28;20577;-64
2023/10/20 03:30:05;;;;;;;8.35;6.75;;;;;;;;;;5068134;28;20478;-62
2023/10/20 03:32:31;;;;;;;14.55;7.45;;;;;;;;;;5071893;28;20500;-64
2023/10/20 03:34:57;;;;;;;12.13;8.23;;;;;;;;;;5051204;28;20037;-63
2023/10/20 03:37:24;;;;;;;11.18;7.38;;;;;;;;;;5068726;28;20145;-64
2023/10/20 03:39:51;;;;;;;11.52;6.95;;;;;;;;;;5078284;28;20033;-64
2023/10/20 03:42:17;;;;;;;10.13;7.30;;;;;;;;;;5078797;28;20230;-62
2023/10/20 03:44:43;;;;;;;11.43;7.00;;;;;;;;;;5076137;28;20400;-63
2023/10/20 03:47:10;;;;;;;12.13;7.95;;;;;;;;;;5075847;28;20253;-64
2023/10/20 03:49:36;;;;;;;9.13;6.90;;;;;;;;;;5059332;28;20060;-64
2023/10/20 03:52:06;;;;;;;12.77;7.15;;;;;;;;;;5051278;28;20538;-65
2023/10/20 03:54:33;;;;;;;9.20;7.13;;;;;;;;;;5076099;28;20423;-64
2023/10/20 03:56:59;;;;;;;9.85;6.72;;;;;;;;;;5065607;28;20396;-63
2023/10/20 03:59:26;;;;;;;9.93;7.07;;;;;;;;;;5063775;28;20068;-62
2023/10/20 04:01:52;;;;;;;10.05;6.95;;;;;;;;;;5075680;28;20103;-64
2023/10/20 04:04:18;;;;;;;11.63;7.60;;;;;;;;;;5051594;28;20504;-63
2023/10/20 04:06:45;;;;;;;10.52;7.38;;;;;;;;;;5071131;28;20079;-64
2023/10/20 04:09:14;;;;;;;12.45;7.88;;;;;;;;;;5067244;28;20472;-64
2023/10/20 04:11:40;;;;;;;12.82;7.93;;;;;;;;;;5066024;28;20052;-64
2023/10/20 04:14:06;;;;;;;11.07;6.82;;;;;;;;;;5065944;28;20036;-64
2023/10/20 04:16:39;;;;;;;11.70;7.05;;;;;;;;;;5064180;28;20395;-64
2023/10/20 04:19:06;;;;;;;9.32;7.43;;;;;;;;;;5069699;28;20451;-65
2023/10/20 04:21:32;;;;;;;12.23;8.18;;;;;;;;;;5071772;28;20055;-63
2023/10/20 04:23:59;;;;;;;10.80;7.35;;;;;;;;;;5025828;28;20044;-64
2023/10/20 04:26:26;;;;;;;9.93;7.15;;;;;;;;;;5065243;28;20037;-65
2023/10/20 04:29:23;;;;;;;12.32;6.95;;;;;;;;;;5050805;28;20054;-63
2023/10/20 04:43:05;;;;;;;10.23;7.22;;;;;;;;;;5065255;28;20090;-65
2023/10/20 04:48:15;;;;;;;11.13;7.70;;;;;;;;;;5066769;28;20666;-64
2023/10/20 04:51:19;;;;;;;9.20;6.85;;;;;;;;;;5063260;28;20052;-65
2023/10/20 04:56:45;;;;;;;9.95;6.47;;;;;;;;;;5065518;28;20424;-63
2023/10/20 04:59:21;;;;;;;7.50;6.28;;;;;;;;;;5066510;28;20240;-63
2023/10/20 05:01:48;;;;;;;8.05;5.50;;;;;;;;;;5066201;28;20051;-64
2023/10/20 05:04:36;;;;;;;9.57;6.57;;;;;;;;;;5070193;28;20098;-62
2023/10/20 05:07:05;;;;;;;8.70;5.60;;;;;;;;;;5067876;28;20058;-63
2023/10/20 05:09:40;;;;;;;9.98;5.72;;;;;;;;;;5065158;28;20271;-64
2023/10/20 05:12:07;;;;;;;7.82;5.53;;;;;;;;;;5063686;28;20681;-64
2023/10/20 05:14:33;;;;;;;8.98;5.72;;;;;;;;;;5039858;28;20036;-64
2023/10/20 05:16:59;;;;;;;8.10;5.55;;;;;;;;;;5056804;28;20120;-64
2023/10/20 05:19:31;;;;;;;7.85;5.22;;;;;;;;;;5067979;28;20781;-64
2023/10/20 05:21:57;;;;;;;7.68;5.15;;;;;;;;;;5049509;28;20045;-64
2023/10/20 05:24:23;;;;;;;7.38;5.32;;;;;;;;;;5067771;28;20135;-64
2023/10/20 05:26:55;;;;;;;9.15;5.20;;;;;;;;;;5068860;28;20040;-64
2023/10/20 05:29:21;;;;;;;7.25;5.32;;;;;;;;;;5066741;28;20114;-64
2023/10/20 05:31:47;;;;;;;8.32;5.78;;;;;;;;;;5067507;28;20036;-63
2023/10/20 05:34:14;;;;;;;6.70;5.45;;;;;;;;;;5049420;28;20334;-65
2023/10/20 05:36:42;;;;;;;8.45;5.82;;;;;;;;;;5068238;28;20036;-65
2023/10/20 05:39:09;;;;;;;7.25;4.57;;;;;;;;;;5067128;28;20052;-63
2023/10/20 05:41:35;;;;;;;6.75;4.25;;;;;;;;;;5068110;28;20045;-64
2023/10/20 05:44:01;;;;;;;6.47;4.28;;;;;;;;;;5062940;28;20105;-64
2023/10/20 05:46:28;;;;;;;8.63;5.45;;;;;;;;;;5065678;28;20036;-64
2023/10/20 05:48:55;;;;;;;6.47;4.72;;;;;;;;;;5048798;28;20181;-63
2023/10/20 05:51:21;;;;;;;6.63;4.35;;;;;;;;;;5065874;28;20092;-64
2023/10/20 05:53:47;;;;;;;6.15;4.53;;;;;;;;;;5029390;28;20048;-64
2023/10/20 05:56:14;;;;;;;6.00;4.32;;;;;;;;;;5067700;28;20075;-64
2023/10/20 05:58:40;;;;;;;7.13;4.05;;;;;;;;;;5046613;28;20116;-64
2023/10/20 06:01:07;;;;;;;4.95;3.72;;;;;;;;;;5066348;28;20507;-63
2023/10/20 06:03:33;;;;;;;10.05;4.53;;;;;;;;;;5067334;28;20486;-65
2023/10/20 06:06:00;;;;;;;6.32;3.67;;;;;;;;;;5067056;28;20102;-65
2023/10/20 06:08:28;;;;;;;7.28;4.65;;;;;;;;;;5066351;28;20463;-65
2023/10/20 06:10:59;;;;;;;4.88;3.92;;;;;;;;;;5063321;28;20505;-65
2023/10/20 06:13:25;;;;;;;6.07;4.07;;;;;;;;;;5044277;28;20025;-65
2023/10/20 06:15:51;;;;;;;5.80;4.15;;;;;;;;;;5064648;28;20106;-65
2023/10/20 06:18:18;;;;;;;5.40;3.97;;;;;;;;;;5062006;28;20495;-65
2023/10/20 06:20:44;;;;;;;7.63;4.45;;;;;;;;;;5062806;28;20545;-65
2023/10/20 06:23:10;;;;;;;5.38;3.80;;;;;;;;;;5044765;28;20044;-64
2023/10/20 06:25:36;;;;;;;5.63;3.67;;;;;;;;;;5062348;28;20091;-63
2023/10/20 06:28:04;;;;;;;4.68;3.53;;;;;;;;;;5063798;28;20048;-65
2023/10/20 06:30:30;;;;;;;5.38;3.75;;;;;;;;;;5058172;28;20205;-65
2023/10/20 06:33:01;;;;;;;7.25;3.63;;;;;;;;;;5062233;28;20032;-65
2023/10/20 06:35:33;;;;;;;5.78;2.97;;;;;;;;;;5068653;28;20072;-64
2023/10/20 06:40:35;;;;;;;7.07;3.10;;;;;;;;;;5064686;28;20063;-64
2023/10/20 06:43:02;;;;;;;4.88;3.20;;;;;;;;;;5053225;28;20115;-65
2023/10/20 06:45:29;;;;;;;4.22;3.05;;;;;;;;;;5048940;28;20048;-63
2023/10/20 06:47:57;;;;;;;5.57;3.10;;;;;;;;;;5062961;28;20076;-64
2023/10/20 06:50:23;;;;;;;5.35;3.33;;;;;;;;;;5058539;28;20063;-64
2023/10/20 06:52:49;;;;;;;5.65;2.92;;;;;;;;;;5061332;28;20044;-64
2023/10/20 06:55:15;;;;;;;3.35;2.22;;;;;;;;;;5061244;28;20649;-63
2023/10/20 06:57:41;;;;;;;4.70;2.92;;;;;;;;;;5061221;28;20372;-65
2023/10/20 07:00:16;;;;;;;5.72;2.70;;;;;;;;;;5057286;28;20044;-65
2023/10/20 07:02:42;;;;;;;3.90;2.78;;;;;;;;;;5064297;28;20048;-64
2023/10/20 07:05:08;;;;;;;4.10;2.47;;;;;;;;;;5064384;28;20099;-63
2023/10/20 07:07:34;;;;;;;3.80;2.20;;;;;;;;;;5059988;28;20781;-64
2023/10/20 07:10:01;;;;;;;4.53;2.88;;;;;;;;;;5063286;28;20547;-64
2023/10/20 07:12:29;;;;;;;5.10;2.40;;;;;;;;;;5062927;28;20450;-64
2023/10/20 07:14:55;;;;;;;4.47;2.47;;;;;;;;;;5040319;28;20117;-65
2023/10/20 07:17:21;;;;;;;4.43;2.20;;;;;;;;;;5049812;28;20041;-64
2023/10/20 07:19:47;;;;;;;7.28;2.47;;;;;;;;;;5063689;28;20054;-65
2023/10/20 07:22:13;;;;;;;3.60;1.95;;;;;;;;;;5059681;28;20495;-63
2023/10/20 07:24:41;;;;;;;4.88;2.10;;;;;;;;;;5060368;28;20045;-64
2023/10/20 07:27:07;;;;;;;3.60;2.17;;;;;;;;;;5066187;28;20052;-65
2023/10/20 07:29:33;;;;;;;3.45;2.03;;;;;;;;;;5064544;28;20059;-65
2023/10/20 07:32:00;;;;;;;3.15;2.00;;;;;;;;;;5066440;28;20748;-64
2023/10/20 07:34:27;;;;;;;2.85;1.55;;;;;;;;;;5067086;28;20044;-63
2023/10/20 07:36:53;;;;;;;3.17;1.70;;;;;;;;;;5061314;28;20499;-63
2023/10/20 07:39:19;;;;;;;2.80;1.67;;;;;;;;;;5063803;28;20381;-64
2023/10/20 07:41:47;;;;;;;2.55;1.70;;;;;;;;;;5063040;28;20037;-63
2023/10/20 07:44:15;;;;;;;5.30;2.05;;;;;;;;;;5055876;28;20041;-64
2023/10/20 07:46:42;;;;;;;3.80;2.13;;;;;;;;;;5058957;28;20144;-65
2023/10/20 07:49:11;;;;;;;2.30;1.50;;;;;;;;;;5061609;28;20611;-65
2023/10/20 07:51:38;;;;;;;3.88;1.95;;;;;;;;;;5058088;28;20076;-64
2023/10/20 07:54:04;;;;;;;2.17;1.60;;;;;;;;;;5056183;28;20060;-64
2023/10/20 07:56:30;;;;;;;3.97;2.08;;;;;;;;;;5060465;28;20045;-64
2023/10/20 07:58:57;;;;;;;2.35;1.77;;;;;;;;;;5043458;28;20173;-64
2023/10/20 08:01:23;;;;;;;3.67;1.77;;;;;;;;;;5050631;28;20033;-63
2023/10/20 08:03:49;;;;;;;3.70;2.00;;;;;;;;;;5055745;28;20464;-64
2023/10/20 08:06:16;;;;;;;3.28;1.60;;;;;;;;;;5066359;28;20279;-63
2023/10/20 08:08:42;;;;;;;2.75;1.70;;;;;;;;;;5064701;28;20036;-64
2023/10/20 08:11:08;;;;;;;3.92;1.83;;;;;;;;;;5055678;28;20048;-63
2023/10/20 08:13:36;;;;;;;3.38;1.70;;;;;;;;;;5059076;28;20040;-63
2023/10/20 08:16:03;;;;;;;2.92;1.52;;;;;;;;;;5057612;28;20037;-63
2023/10/20 08:18:33;;;;;;;2.55;1.60;;;;;;;;;;5058849;28;20041;-63
2023/10/20 08:21:06;;;;;;;3.95;1.80;;;;;;;;;;5057315;28;20033;-63
2023/10/20 08:23:32;;;;;;;2.85;2.05;;;;;;;;;;5063482;28;20172;-64
2023/10/20 08:25:58;;;;;;;2.30;1.40;;;;;;;;;;5067111;28;20033;-64
2023/10/20 08:28:27;;;;;;;2.55;1.30;;;;;;;;;;5065579;28;20391;-64
2023/10/20 08:31:06;;;;;;;2.38;1.70;;;;;;;;;;5067131;28;20040;-64
2023/10/20 08:33:33;;;;;;;1.95;1.65;;;;;;;;;;5065885;28;20119;-64
2023/10/20 08:36:09;;;;;;;3.17;1.33;;;;;;;;;;5069562;28;20040;-63
2023/10/20 08:38:35;;;;;;;2.50;1.60;;;;;;;;;;5065529;28;20040;-64
2023/10/20 08:41:01;;;;;;;2.47;1.67;;;;;;;;;;5054136;28;20035;-63
2023/10/20 08:43:28;;;;;;;4.93;1.98;;;;;;;;;;5070849;28;20427;-63
2023/10/20 08:45:55;;;;;;;2.55;1.73;;;;;;;;;;5082165;28;20132;-63
2023/10/20 08:48:22;;;;;;;2.50;1.55;;;;;;;;;;5075729;28;20040;-63
2023/10/20 08:50:49;;;;;;;2.40;1.20;;;;;;;;;;5052595;28;20048;-64
2023/10/20 08:53:16;;;;;;;2.78;1.73;;;;;;;;;;5046667;28;20055;-63
2023/10/20 08:55:42;;;;;;;2.08;1.42;;;;;;;;;;5061806;28;20495;-64
2023/10/20 08:58:08;;;;;;;3.88;1.55;;;;;;;;;;5072417;28;20457;-64
2023/10/20 09:00:34;;;;;;;1.88;1.42;;;;;;;;;;5064871;28;20047;-64
2023/10/20 09:03:00;;;;;;;3.65;1.77;;;;;;;;;;5069870;28;20403;-64
2023/10/20 09:05:26;;;;;;;2.63;1.55;;;;;;;;;;5060693;28;20050;-63
2023/10/20 09:07:56;;;;;;;5.47;1.73;;;;;;;;;;5059615;28;20063;-64
2023/10/20 09:10:23;;;;;;;2.70;1.38;;;;;;;;;;5059977;28;20048;-64
2023/10/20 09:12:50;;;;;;;2.47;1.52;;;;;;;;;;5056408;28;20554;-65
2023/10/20 09:15:16;;;;;;;2.00;1.27;;;;;;;;;;5043132;28;20377;-64
2023/10/20 09:17:44;;;;;;;2.28;1.30;;;;;;;;;;5060856;28;20152;-62
2023/10/20 09:20:11;;;;;;;2.40;1.30;;;;;;;;;;5066950;28;20589;-64
2023/10/20 09:22:41;;;;;;;2.38;1.50;;;;;;;;;;5050942;28;20453;-64
2023/10/20 09:25:11;;;;;;;3.20;1.58;;;;;;;;;;5067989;28;20128;-63
2023/10/20 09:27:38;;;;;;;1.83;1.25;;;;;;;;;;5046265;28;20558;-63
2023/10/20 09:30:10;;;;;;;2.70;1.42;;;;;;;;;;5063864;28;20514;-63
2023/10/20 09:32:36;;;;;;;;;;;;;;;;;;5068930;28;20144;-63
2023/10/20 09:35:05;;;;;;;1.35;0.85;;;;;;;;;;5068002;28;20571;-63
2023/10/20 09:37:32;;;;;;;1.73;1.25;;;;;;;;;;5068184;28;20036;-64
2023/10/20 09:40:05;;;;;;;2.65;1.25;;;;;;;;;;5063191;28;20041;-64
2023/10/20 09:42:36;;;;;;;1.38;0.95;;;;;;;;;;5063407;28;20032;-62
2023/10/20 09:45:11;;;;;;;1.55;0.98;;;;;;;;;;5050640;28;20048;-64
2023/10/20 09:47:38;;;;;;;1.75;0.95;;;;;;;;;;5062770;28;20432;-64
2023/10/20 09:50:05;;;;;;;1.67;1.10;;;;;;;;;;5061858;28;20341;-63
2023/10/20 09:52:32;;;;;;;2.22;1.40;;;;;;;;;;5066824;28;20051;-63
2023/10/20 09:54:58;;;;;;;2.20;1.00;;;;;;;;;;5068506;28;20037;-60
2023/10/20 09:57:26;;;;;;;2.25;0.90;;;;;;;;;;5044848;28;20119;-63
2023/10/20 09:59:53;;;;;;;1.60;0.90;;;;;;;;;;5063523;28;20033;-63
2023/10/20 10:02:29;;;;;;;1.27;1.05;;;;;;;;;;5044137;28;20171;-63
2023/10/20 10:05:00;;;;;;;2.33;0.90;;;;;;;;;;5065538;28;20377;-63
2023/10/20 10:07:32;;;;;;;1.20;0.80;;;;;;;;;;5064911;28;20045;-63
2023/10/20 10:09:58;;;;;;;1.98;0.88;;;;;;;;;;5066122;28;20085;-64
2023/10/20 10:12:26;;;;;;;1.67;1.10;;;;;;;;;;5061587;28;20044;-64
2023/10/20 10:14:59;;;;;;;1.45;0.80;;;;;;;;;;5059536;28;20051;-64
2023/10/20 10:17:28;;;;;;;1.60;1.13;;;;;;;;;;5063094;28;20100;-64
2023/10/20 10:19:55;;;;;;;1.90;1.10;;;;;;;;;;5065707;28;20036;-62
2023/10/20 10:22:31;;;;;;;1.15;0.70;;;;;;;;;;5031581;28;20037;-63
2023/10/20 10:25:00;;;;;;;1.42;1.00;;;;;;;;;;5055089;28;20044;-64
2023/10/20 10:27:29;;;;;;;1.17;0.70;;;;;;;;;;5065036;28;20036;-64
2023/10/20 10:30:06;;;;;;;2.63;1.10;;;;;;;;;;5064619;28;20051;-63
2023/10/20 10:32:33;;;;;;;1.88;0.82;;;;;;;;;;5047447;28;20037;-62
2023/10/20 10:35:00;;;;;;;1.00;0.73;;;;;;;;;;5066651;28;20131;-63
2023/10/20 10:37:32;;;;;;;1.13;0.70;;;;;;;;;;5067740;28;20037;-63
2023/10/20 10:40:10;;;;;;;1.65;0.90;;;;;;;;;;5058687;28;20040;-64
2023/10/20 10:42:42;;;;;;;1.95;0.82;;;;;;;;;;5057674;28;20076;-64
2023/10/20 10:45:24;;;;;;;0.95;0.80;;;;;;;;;;5054228;28;20048;-64
2023/10/20 10:48:08;;;;;;;1.65;0.85;;;;;;;;;;5059401;28;20452;-63
2023/10/20 10:50:38;;;;;;;1.75;1.20;;;;;;;;;;5060837;28;20051;-64
2023/10/20 10:53:05;;;;;;;1.23;0.90;;;;;;;;;;5059826;28;20074;-61
2023/10/20 10:55:31;;;;;;;1.17;0.82;;;;;;;;;;5061463;28;20044;-62
2023/10/20 10:57:58;;;;;;;1.40;0.77;;;;;;;;;;5062161;28;20036;-62
2023/10/20 11:00:24;;;;;;;2.05;0.63;;;;;;;;;;5059441;28;20759;-64
2023/10/20 11:02:51;;;;;;;0.63;0.60;;;;;;;;;;5058428;28;20033;-62
2023/10/20 11:05:18;;;;;;;1.52;0.75;;;;;;;;;;5044129;28;20055;-63
2023/10/20 11:08:10;;;;;;;1.10;0.70;;;;;;;;;;5061399;28;20044;-64
2023/10/20 11:10:37;;;;;;;1.23;0.80;;;;;;;;;;5058059;28;20048;-65
2023/10/20 11:13:10;;;;;;;1.90;0.85;;;;;;;;;;5061425;28;20373;-63
2023/10/20 11:15:37;;;;;;;1.05;0.75;;;;;;;;;;5060051;28;20178;-64
2023/10/20 11:18:05;;;;;;;2.60;0.88;;;;;;;;;;5063633;28;20032;-65
2023/10/20 11:20:38;;;;;;;0.93;0.60;;;;;;;;;;5064515;28;20073;-64
2023/10/20 11:23:07;;;;;;;1.33;0.80;;;;;;;;;;5060758;28;20044;-64
2023/10/20 11:25:34;;;;;;;2.42;1.17;;;;;;;;;;5063894;28;20048;-64
2023/10/20 11:28:02;;;;;;;2.10;1.00;;;;;;;;;;5059368;28;20084;-64
2023/10/20 11:30:32;;;;;;;0.43;0.40;;;;;;;;;;5043636;28;20041;-64
2023/10/20 11:32:59;;;;;;;1.08;0.77;;;;;;;;;;5062119;28;20051;-64
2023/10/20 11:35:25;;;;;;;1.10;0.70;;;;;;;;;;5064386;28;20465;-63
2023/10/20 11:37:52;;;;;;;1.13;0.70;;;;;;;;;;5060927;28;20506;-63
2023/10/20 11:40:18;;;;;;;0.82;0.60;;;;;;;;;;5063687;28;20058;-64
2023/10/20 11:42:45;;;;;;;1.27;0.77;;;;;;;;;;5063833;28;20044;-63
2023/10/20 11:45:11;;;;;;;2.10;0.60;;;;;;;;;;5041538;28;20109;-63
2023/10/20 11:47:37;;;;;;;0.70;0.50;;;;;;;;;;5061021;28;20041;-63
2023/10/20 11:50:04;;;;;;;0.70;0.50;;;;;;;;;;5059261;28;20444;-63
2023/10/20 11:52:30;;;;;;;1.00;0.90;;;;;;;;;;5065025;28;20044;-63
2023/10/20 11:54:56;;;;;;;0.82;0.40;;;;;;;;;;5062980;28;20043;-63
2023/10/20 11:57:23;;;;;;;1.05;0.75;;;;;;;;;;5060078;28;20599;-64
2023/10/20 11:59:49;;;;;;;0.85;0.55;;;;;;;;;;5044278;28;20064;-64
2023/10/20 12:02:15;;;;;;;1.20;0.60;;;;;;;;;;5063963;28;20032;-63
2023/10/20 12:04:41;;;;;;;1.05;0.60;;;;;;;;;;5057524;28;20407;-63
2023/10/20 12:07:09;;;;;;;0.47;0.40;;;;;;;;;;5065658;28;20063;-63
2023/10/20 12:09:35;;;;;;;0.52;0.50;;;;;;;;;;5066976;28;20279;-63
2023/10/20 12:12:01;;;;;;;1.10;0.55;;;;;;;;;;5047953;28;20044;-64
2023/10/20 12:14:27;;;;;;;1.38;0.70;;;;;;;;;;5063584;28;20403;-64
2023/10/20 12:16:53;;;;;;;0.77;0.65;;;;;;;;;;5059484;28;20049;-65
2023/10/20 12:19:20;;;;;;;1.05;0.77;;;;;;;;;;5062134;28;20391;-63
2023/10/20 12:21:46;;;;;;;0.93;0.60;;;;;;;;;;5034650;28;20426;-63
2023/10/20 12:24:13;;;;;;;0.60;0.47;;;;;;;;;;5053015;28;20040;-64
2023/10/20 12:26:39;;;;;;;1.50;0.85;;;;;;;;;;5070661;28;20044;-62
2023/10/20 12:29:06;;;;;;;0.40;0.40;;;;;;;;;;5061527;28;20082;-64
2023/10/20 12:31:32;;;;;;;1.42;1.20;;;;;;;;;;5066223;28;20032;-63
2023/10/20 12:33:59;;;;;;;1.30;1.00;;;;;;;;;;5060596;28;20048;-64
2023/10/20 12:36:28;;;;;;;0.47;0.43;;;;;;;;;;5069019;28;20033;-63
2023/10/20 12:38:56;;;;;;;2.10;0.77;;;;;;;;;;5064447;28;20043;-62
2023/10/20 12:41:22;;;;;;;1.20;0.63;;;;;;;;;;5070578;28;20041;-64
2023/10/20 12:43:48;;;;;;;0.85;0.50;;;;;;;;;;5069274;28;20043;-65
2023/10/20 12:46:14;;;;;;;1.40;0.95;;;;;;;;;;5070597;28;20036;-65
2023/10/20 12:48:41;;;;;;;0.77;0.50;;;;;;;;;;5051519;28;20036;-63
2023/10/20 12:51:10;;;;;;;0.60;0.60;;;;;;;;;;5069530;28;20126;-64
2023/10/20 12:53:36;;;;;;;2.65;0.63;;;;;;;;;;5069983;28;20078;-64
2023/10/20 12:56:05;;;;;;;0.77;0.40;;;;;;;;;;5069871;28;20448;-64
2023/10/20 12:58:31;;;;;;;0.43;0.40;;;;;;;;;;5068434;28;20041;-64
2023/10/20 13:00:57;;;;;;;0.50;0.50;;;;;;;;;;5051068;28;20040;-64
2023/10/20 13:03:26;;;;;;;0.63;0.60;;;;;;;;;;5068635;28;20356;-65
2023/10/20 13:05:52;;;;;;;1.25;0.77;;;;;;;;;;5069190;28;20043;-64
2023/10/20 13:08:18;;;;;;;2.25;0.60;;;;;;;;;;5019795;28;20157;-63
2023/10/20 13:10:47;;;;;;;0.75;0.55;;;;;;;;;;5072340;28;20048;-63
2023/10/20 13:13:14;;;;;;;0.50;0.50;;;;;;;;;;5050724;28;20052;-63
2023/10/20 13:15:40;;;;;;;1.50;0.75;;;;;;;;;;5062746;28;20044;-64
2023/10/20 13:18:06;;;;;;;0.80;0.50;;;;;;;;;;5062781;28;20036;-64
2023/10/20 13:20:32;;;;;;;0.88;0.70;;;;;;;;;;5063249;28;20124;-63
2023/10/20 13:22:58;;;;;;;1.00;0.60;;;;;;;;;;5065343;28;20602;-64
2023/10/20 13:25:26;;;;;;;0.93;0.50;;;;;;;;;;5063352;28;20052;-64
2023/10/20 13:27:53;;;;;;;0.77;0.65;;;;;;;;;;5064659;28;20040;-64
2023/10/20 13:30:19;;;;;;;2.30;1.08;;;;;;;;;;5062447;28;20052;-63
2023/10/20 13:32:45;;;;;;;0.73;0.40;;;;;;;;;;5067542;28;20039;-64
2023/10/20 13:35:11;;;;;;;1.15;0.50;;;;;;;;;;5063614;28;20066;-63
2023/10/20 13:37:39;;;;;;;0.45;0.45;;;;;;;;;;5061735;28;20078;-64
2023/10/20 13:40:08;;;;;;;0.40;0.32;;;;;;;;;;5068151;28;20067;-64
2023/10/20 13:42:35;;;;;;;1.33;0.60;;;;;;;;;;5062471;28;20047;-63
2023/10/20 13:45:01;;;;;;;1.17;0.50;;;;;;;;;;5062195;28;20041;-63
2023/10/20 13:47:27;;;;;;;1.58;0.65;;;;;;;;;;5065354;28;20052;-64
2023/10/20 13:49:53;;;;;;;0.32;0.32;;;;;;;;;;5048255;28;20049;-64
2023/10/20 13:52:19;;;;;;;1.40;0.40;;;;;;;;;;5065810;28;20045;-64
2023/10/20 13:54:46;;;;;;;1.08;0.50;;;;;;;;;;5067489;28;20045;-64
2023/10/20 13:57:13;;;;;;;0.75;0.60;;;;;;;;;;5067642;28;20337;-63
2023/10/20 13:59:39;;;;;;;0.40;0.40;;;;;;;;;;5066224;28;20291;-64
2023/10/20 14:02:06;;;;;;;1.05;0.60;;;;;;;;;;5064650;28;20103;-63
2023/10/20 14:04:32;;;;;;;1.75;0.68;;;;;;;;;;5064423;28;20048;-64
2023/10/20 14:06:58;;;;;;;0.80;0.50;;;;;;;;;;5062625;28;20036;-64
2023/10/20 14:09:26;;;;;;;0.93;0.60;;;;;;;;;;5061493;28;20044;-64
2023/10/20 14:11:52;;;;;;;0.47;0.47;;;;;;;;;;5058739;28;20052;-63
2023/10/20 14:14:18;;;;;;;1.55;0.80;;;;;;;;;;5060411;28;20048;-64
2023/10/20 14:16:44;;;;;;;0.90;0.60;;;;;;;;;;5036333;28;20577;-64
2023/10/20 14:19:11;;;;;;;1.05;0.65;;;;;;;;;;5063445;28;20379;-62
2023/10/20 14:21:37;;;;;;;1.27;0.77;;;;;;;;;;5045647;28;20040;-65
2023/10/20 14:24:04;;;;;;;0.40;0.40;;;;;;;;;;5063207;28;20047;-65
2023/10/20 14:26:30;;;;;;;1.30;0.68;;;;;;;;;;5044598;28;20052;-64
2023/10/20 14:28:57;;;;;;;0.82;0.50;;;;;;;;;;5060918;28;20059;-64
2023/10/20 14:31:23;;;;;;;0.75;0.40;;;;;;;;;;5063181;28;20417;-64
2023/10/20 14:33:49;;;;;;;0.82;0.60;;;;;;;;;;5062145;28;20036;-64
2023/10/20 14:36:18;;;;;;;0.50;0.40;;;;;;;;;;5062309;28;20454;-64
2023/10/20 14:38:45;;;;;;;0.52;0.43;;;;;;;;;;5067521;28;20490;-63
2023/10/20 14:41:12;;;;;;;0.60;0.50;;;;;;;;;;5055999;28;20037;-64
2023/10/20 14:43:39;;;;;;;0.63;0.60;;;;;;;;;;5043295;28;20110;-64
2023/10/20 14:46:06;;;;;;;0.73;0.55;;;;;;;;;;5061693;28;20044;-64
2023/10/20 14:48:33;;;;;;;0.68;0.60;;;;;;;;;;5059505;28;20096;-63
2023/10/20 14:51:00;;;;;;;2.40;0.70;;;;;;;;;;5061125;28;20070;-64
2023/10/20 14:53:26;;;;;;;0.80;0.52;;;;;;;;;;5063890;28;20043;-64
2023/10/20 14:55:52;;;;;;;1.67;0.52;;;;;;;;;;5044352;28;20043;-64
2023/10/20 14:58:18;;;;;;;1.75;0.45;;;;;;;;;;5063175;28;20046;-64
2023/10/20 15:00:45;;;;;;;0.85;0.52;;;;;;;;;;5054585;28;20507;-64
2023/10/20 15:03:11;;;;;;;0.40;0.40;;;;;;;;;;5052302;28;20045;-63